sensor_id;sensor_type;location;lat;lon;timestamp;P1;durP1;ratioP1;P2;durP2;ratioP2
55913;SDS011;58179;48.776;9.124;2023-05-07T00:00:04;4.72;;;3.20;;
55913;SDS011;58179;48.776;9.124;2023-05-07T00:02:36;6.20;;;3.22;;
55913;SDS011;58179;48.776;9.124;2023-05-07T00:05:07;7.10;;;3.42;;
55913;SDS011;58179;48.776;9.124;2023-05-07T00:07:35;3.92;;;2.90;;
55913;SDS011;58179;48.776;9.124;2023-05-07T00:10:01;4.78;;;3.30;;
55913;SDS011;58179;48.776;9.124;2023-05-07T00:12:27;4.13;;;2.97;;
55913;SDS011;58179;48.776;9.124;2023-05-07T00:14:56;5.70;;;3.53;;
55913;SDS011;58179;48.776;9.124;2023-05-07T00:17:22;4.32;;;3.10;;
55913;SDS011;58179;48.776;9.124;2023-05-07T00:19:48;6.05;;;3.50;;
55913;SDS011;58179;48.776;9.124;2023-05-07T00:22:14;6.28;;;3.60;;
55913;SDS011;58179;48.776;9.124;2023-05-07T00:24:41;6.35;;;3.40;;
55913;SDS011;58179;48.776;9.124;2023-05-07T00:27:08;6.50;;;3.70;;
55913;SDS011;58179;48.776;9.124;2023-05-07T00:29:34;6.38;;;3.00;;
55913;SDS011;58179;48.776;9.124;2023-05-07T00:32:01;5.10;;;3.28;;
55913;SDS011;58179;48.776;9.124;2023-05-07T00:34:27;5.60;;;3.30;;
55913;SDS011;58179;48.776;9.124;2023-05-07T00:36:53;5.07;;;3.28;;
55913;SDS011;58179;48.776;9.124;2023-05-07T00:39:19;6.55;;;3.20;;
55913;SDS011;58179;48.776;9.124;2023-05-07T00:41:46;6.45;;;3.60;;
55913;SDS011;58179;48.776;9.124;2023-05-07T00:44:12;5.97;;;3.60;;
55913;SDS011;58179;48.776;9.124;2023-05-07T00:46:39;4.93;;;3.63;;
55913;SDS011;58179;48.776;9.124;2023-05-07T00:49:05;5.88;;;3.20;;
55913;SDS011;58179;48.776;9.124;2023-05-07T00:51:31;4.97;;;3.38;;
55913;SDS011;58179;48.776;9.124;2023-05-07T00:53:59;4.85;;;3.22;;
55913;SDS011;58179;48.776;9.124;2023-05-07T00:56:26;5.90;;;3.70;;
55913;SDS011;58179;48.776;9.124;2023-05-07T00:58:54;5.72;;;3.63;;
55913;SDS011;58179;48.776;9.124;2023-05-07T01:01:20;5.68;;;4.25;;
55913;SDS011;58179;48.776;9.124;2023-05-07T01:03:46;4.25;;;3.58;;
55913;SDS011;58179;48.776;9.124;2023-05-07T01:06:12;5.25;;;4.38;;
55913;SDS011;58179;48.776;9.124;2023-05-07T01:08:41;5.72;;;4.40;;
55913;SDS011;58179;48.776;9.124;2023-05-07T01:11:08;8.13;;;4.55;;
55913;SDS011;58179;48.776;9.124;2023-05-07T01:13:36;6.93;;;4.55;;
55913;SDS011;58179;48.776;9.124;2023-05-07T01:16:05;6.38;;;4.30;;
55913;SDS011;58179;48.776;9.124;2023-05-07T01:18:31;8.88;;;5.60;;
55913;SDS011;58179;48.776;9.124;2023-05-07T01:20:58;10.60;;;4.88;;
55913;SDS011;58179;48.776;9.124;2023-05-07T01:23:26;7.23;;;5.00;;
55913;SDS011;58179;48.776;9.124;2023-05-07T01:25:53;6.20;;;4.80;;
55913;SDS011;58179;48.776;9.124;2023-05-07T01:28:20;7.97;;;5.53;;
55913;SDS011;58179;48.776;9.124;2023-05-07T01:30:46;10.00;;;5.40;;
55913;SDS011;58179;48.776;9.124;2023-05-07T01:33:15;10.80;;;5.70;;
55913;SDS011;58179;48.776;9.124;2023-05-07T01:35:47;8.50;;;5.70;;
55913;SDS011;58179;48.776;9.124;2023-05-07T01:38:16;9.38;;;6.00;;
55913;SDS011;58179;48.776;9.124;2023-05-07T01:40:47;8.82;;;5.43;;
55913;SDS011;58179;48.776;9.124;2023-05-07T01:43:13;8.60;;;5.30;;
55913;SDS011;58179;48.776;9.124;2023-05-07T01:45:39;8.00;;;5.32;;
55913;SDS011;58179;48.776;9.124;2023-05-07T01:48:06;7.07;;;5.23;;
55913;SDS011;58179;48.776;9.124;2023-05-07T01:50:36;9.52;;;5.80;;
55913;SDS011;58179;48.776;9.124;2023-05-07T01:53:03;8.77;;;5.53;;
55913;SDS011;58179;48.776;9.124;2023-05-07T01:55:29;8.48;;;5.95;;
55913;SDS011;58179;48.776;9.124;2023-05-07T01:57:57;8.32;;;5.68;;
55913;SDS011;58179;48.776;9.124;2023-05-07T02:00:23;10.80;;;5.72;;
55913;SDS011;58179;48.776;9.124;2023-05-07T02:02:49;9.70;;;5.70;;
55913;SDS011;58179;48.776;9.124;2023-05-07T02:05:15;6.97;;;5.13;;
55913;SDS011;58179;48.776;9.124;2023-05-07T02:07:41;6.43;;;5.00;;
55913;SDS011;58179;48.776;9.124;2023-05-07T02:10:07;8.07;;;5.25;;
55913;SDS011;58179;48.776;9.124;2023-05-07T02:12:34;7.78;;;4.80;;
55913;SDS011;58179;48.776;9.124;2023-05-07T02:15:02;9.57;;;4.55;;
55913;SDS011;58179;48.776;9.124;2023-05-07T02:17:28;6.20;;;4.03;;
55913;SDS011;58179;48.776;9.124;2023-05-07T02:19:56;7.95;;;4.47;;
55913;SDS011;58179;48.776;9.124;2023-05-07T02:22:22;6.82;;;4.25;;
55913;SDS011;58179;48.776;9.124;2023-05-07T02:24:48;5.50;;;4.25;;
55913;SDS011;58179;48.776;9.124;2023-05-07T02:27:14;8.80;;;3.90;;
55913;SDS011;58179;48.776;9.124;2023-05-07T02:29:40;5.00;;;3.60;;
55913;SDS011;58179;48.776;9.124;2023-05-07T02:32:07;4.88;;;3.80;;
55913;SDS011;58179;48.776;9.124;2023-05-07T02:34:34;6.55;;;3.45;;
55913;SDS011;58179;48.776;9.124;2023-05-07T02:36:59;5.13;;;3.50;;
55913;SDS011;58179;48.776;9.124;2023-05-07T02:39:25;5.90;;;3.70;;
55913;SDS011;58179;48.776;9.124;2023-05-07T02:41:51;5.00;;;3.35;;
55913;SDS011;58179;48.776;9.124;2023-05-07T02:44:17;5.05;;;3.08;;
55913;SDS011;58179;48.776;9.124;2023-05-07T02:46:43;5.90;;;3.58;;
55913;SDS011;58179;48.776;9.124;2023-05-07T02:49:10;5.70;;;3.72;;
55913;SDS011;58179;48.776;9.124;2023-05-07T02:51:36;4.53;;;3.25;;
55913;SDS011;58179;48.776;9.124;2023-05-07T02:54:02;3.95;;;3.40;;
55913;SDS011;58179;48.776;9.124;2023-05-07T02:56:28;4.78;;;3.03;;
55913;SDS011;58179;48.776;9.124;2023-05-07T02:58:55;5.72;;;3.42;;
55913;SDS011;58179;48.776;9.124;2023-05-07T03:01:21;4.15;;;3.65;;
55913;SDS011;58179;48.776;9.124;2023-05-07T03:03:47;4.78;;;3.33;;
55913;SDS011;58179;48.776;9.124;2023-05-07T03:06:15;4.07;;;3.40;;
55913;SDS011;58179;48.776;9.124;2023-05-07T03:08:41;5.90;;;3.75;;
55913;SDS011;58179;48.776;9.124;2023-05-07T03:11:07;5.68;;;3.65;;
55913;SDS011;58179;48.776;9.124;2023-05-07T03:13:33;7.30;;;3.80;;
55913;SDS011;58179;48.776;9.124;2023-05-07T03:15:59;7.20;;;3.58;;
55913;SDS011;58179;48.776;9.124;2023-05-07T03:18:25;6.05;;;3.50;;
55913;SDS011;58179;48.776;9.124;2023-05-07T03:20:51;6.22;;;3.55;;
55913;SDS011;58179;48.776;9.124;2023-05-07T03:23:18;6.47;;;3.30;;
55913;SDS011;58179;48.776;9.124;2023-05-07T03:25:44;4.53;;;3.60;;
55913;SDS011;58179;48.776;9.124;2023-05-07T03:28:10;5.18;;;3.00;;
55913;SDS011;58179;48.776;9.124;2023-05-07T03:30:36;5.57;;;3.33;;
55913;SDS011;58179;48.776;9.124;2023-05-07T03:33:02;5.00;;;3.50;;
55913;SDS011;58179;48.776;9.124;2023-05-07T03:35:28;3.72;;;3.00;;
55913;SDS011;58179;48.776;9.124;2023-05-07T03:37:54;7.03;;;3.45;;
55913;SDS011;58179;48.776;9.124;2023-05-07T03:40:21;6.03;;;3.10;;
55913;SDS011;58179;48.776;9.124;2023-05-07T03:42:47;5.50;;;3.30;;
55913;SDS011;58179;48.776;9.124;2023-05-07T03:45:13;5.35;;;3.70;;
55913;SDS011;58179;48.776;9.124;2023-05-07T03:47:39;4.43;;;3.40;;
55913;SDS011;58179;48.776;9.124;2023-05-07T03:50:05;4.57;;;3.25;;
55913;SDS011;58179;48.776;9.124;2023-05-07T03:52:31;5.43;;;3.90;;
55913;SDS011;58179;48.776;9.124;2023-05-07T03:54:57;7.60;;;3.10;;
55913;SDS011;58179;48.776;9.124;2023-05-07T03:57:24;6.13;;;2.97;;
55913;SDS011;58179;48.776;9.124;2023-05-07T03:59:50;6.65;;;3.22;;
55913;SDS011;58179;48.776;9.124;2023-05-07T04:02:16;8.50;;;3.20;;
55913;SDS011;58179;48.776;9.124;2023-05-07T04:04:42;5.13;;;3.20;;
55913;SDS011;58179;48.776;9.124;2023-05-07T04:07:08;6.35;;;3.60;;
55913;SDS011;58179;48.776;9.124;2023-05-07T04:09:34;6.40;;;3.13;;
55913;SDS011;58179;48.776;9.124;2023-05-07T04:12:01;5.28;;;3.30;;
55913;SDS011;58179;48.776;9.124;2023-05-07T04:14:28;4.37;;;3.07;;
55913;SDS011;58179;48.776;9.124;2023-05-07T04:16:57;6.13;;;3.60;;
55913;SDS011;58179;48.776;9.124;2023-05-07T04:19:23;7.22;;;3.60;;
55913;SDS011;58179;48.776;9.124;2023-05-07T04:21:49;5.78;;;3.25;;
55913;SDS011;58179;48.776;9.124;2023-05-07T04:24:15;6.87;;;3.60;;
55913;SDS011;58179;48.776;9.124;2023-05-07T04:26:41;5.68;;;3.38;;
55913;SDS011;58179;48.776;9.124;2023-05-07T04:29:06;4.15;;;3.42;;
55913;SDS011;58179;48.776;9.124;2023-05-07T04:31:34;5.22;;;3.78;;
55913;SDS011;58179;48.776;9.124;2023-05-07T04:34:00;4.32;;;3.47;;
55913;SDS011;58179;48.776;9.124;2023-05-07T04:36:26;5.70;;;3.42;;
55913;SDS011;58179;48.776;9.124;2023-05-07T04:38:52;3.90;;;3.37;;
55913;SDS011;58179;48.776;9.124;2023-05-07T04:41:18;4.30;;;3.20;;
55913;SDS011;58179;48.776;9.124;2023-05-07T04:43:44;5.18;;;3.70;;
55913;SDS011;58179;48.776;9.124;2023-05-07T04:46:10;4.85;;;3.25;;
55913;SDS011;58179;48.776;9.124;2023-05-07T04:48:37;5.72;;;3.55;;
55913;SDS011;58179;48.776;9.124;2023-05-07T04:51:03;5.55;;;3.83;;
55913;SDS011;58179;48.776;9.124;2023-05-07T04:53:29;3.65;;;3.33;;
55913;SDS011;58179;48.776;9.124;2023-05-07T04:55:56;6.67;;;3.60;;
55913;SDS011;58179;48.776;9.124;2023-05-07T04:58:22;5.22;;;3.38;;
55913;SDS011;58179;48.776;9.124;2023-05-07T05:00:48;4.57;;;3.47;;
55913;SDS011;58179;48.776;9.124;2023-05-07T05:03:14;4.93;;;3.20;;
55913;SDS011;58179;48.776;9.124;2023-05-07T05:05:42;4.60;;;3.30;;
55913;SDS011;58179;48.776;9.124;2023-05-07T05:08:08;3.90;;;3.42;;
55913;SDS011;58179;48.776;9.124;2023-05-07T05:10:34;4.55;;;3.55;;
55913;SDS011;58179;48.776;9.124;2023-05-07T05:13:00;4.43;;;3.50;;
55913;SDS011;58179;48.776;9.124;2023-05-07T05:15:26;3.65;;;3.30;;
55913;SDS011;58179;48.776;9.124;2023-05-07T05:17:52;5.90;;;3.37;;
55913;SDS011;58179;48.776;9.124;2023-05-07T05:20:18;4.17;;;3.20;;
55913;SDS011;58179;48.776;9.124;2023-05-07T05:22:45;4.60;;;3.30;;
55913;SDS011;58179;48.776;9.124;2023-05-07T05:25:11;4.07;;;3.65;;
55913;SDS011;58179;48.776;9.124;2023-05-07T05:27:37;4.68;;;3.92;;
55913;SDS011;58179;48.776;9.124;2023-05-07T05:30:03;6.05;;;4.55;;
55913;SDS011;58179;48.776;9.124;2023-05-07T05:32:30;4.85;;;3.85;;
55913;SDS011;58179;48.776;9.124;2023-05-07T05:34:56;4.10;;;3.70;;
55913;SDS011;58179;48.776;9.124;2023-05-07T05:37:22;5.00;;;3.60;;
55913;SDS011;58179;48.776;9.124;2023-05-07T05:39:50;4.53;;;3.47;;
55913;SDS011;58179;48.776;9.124;2023-05-07T05:42:16;4.03;;;3.63;;
55913;SDS011;58179;48.776;9.124;2023-05-07T05:44:41;5.28;;;3.97;;
55913;SDS011;58179;48.776;9.124;2023-05-07T05:47:07;4.32;;;3.58;;
55913;SDS011;58179;48.776;9.124;2023-05-07T05:49:33;4.53;;;3.58;;
55913;SDS011;58179;48.776;9.124;2023-05-07T05:52:00;4.43;;;3.63;;
55913;SDS011;58179;48.776;9.124;2023-05-07T05:54:26;5.38;;;3.20;;
55913;SDS011;58179;48.776;9.124;2023-05-07T05:56:53;4.38;;;3.35;;
55913;SDS011;58179;48.776;9.124;2023-05-07T05:59:19;3.53;;;3.05;;
55913;SDS011;58179;48.776;9.124;2023-05-07T06:01:44;3.90;;;3.40;;
55913;SDS011;58179;48.776;9.124;2023-05-07T06:04:10;4.53;;;3.10;;
55913;SDS011;58179;48.776;9.124;2023-05-07T06:06:36;4.32;;;3.50;;
55913;SDS011;58179;48.776;9.124;2023-05-07T06:09:02;4.85;;;3.70;;
55913;SDS011;58179;48.776;9.124;2023-05-07T06:11:28;5.72;;;4.05;;
55913;SDS011;58179;48.776;9.124;2023-05-07T06:13:56;5.18;;;3.75;;
55913;SDS011;58179;48.776;9.124;2023-05-07T06:16:21;5.47;;;4.30;;
55913;SDS011;58179;48.776;9.124;2023-05-07T06:18:47;4.80;;;3.90;;
55913;SDS011;58179;48.776;9.124;2023-05-07T06:21:13;7.28;;;4.00;;
55913;SDS011;58179;48.776;9.124;2023-05-07T06:23:40;5.43;;;4.23;;
55913;SDS011;58179;48.776;9.124;2023-05-07T06:26:06;6.57;;;4.40;;
55913;SDS011;58179;48.776;9.124;2023-05-07T06:28:32;5.90;;;4.40;;
55913;SDS011;58179;48.776;9.124;2023-05-07T06:31:15;5.93;;;4.38;;
55913;SDS011;58179;48.776;9.124;2023-05-07T06:33:45;5.97;;;4.60;;
55913;SDS011;58179;48.776;9.124;2023-05-07T06:36:11;7.82;;;4.90;;
55913;SDS011;58179;48.776;9.124;2023-05-07T06:38:38;6.47;;;4.80;;
55913;SDS011;58179;48.776;9.124;2023-05-07T06:41:05;5.90;;;4.53;;
55913;SDS011;58179;48.776;9.124;2023-05-07T06:43:31;5.70;;;4.63;;
55913;SDS011;58179;48.776;9.124;2023-05-07T06:45:57;9.30;;;5.15;;
55913;SDS011;58179;48.776;9.124;2023-05-07T06:48:24;6.00;;;4.00;;
55913;SDS011;58179;48.776;9.124;2023-05-07T06:50:50;5.47;;;4.25;;
55913;SDS011;58179;48.776;9.124;2023-05-07T06:53:16;5.57;;;4.50;;
55913;SDS011;58179;48.776;9.124;2023-05-07T06:55:42;5.70;;;4.70;;
55913;SDS011;58179;48.776;9.124;2023-05-07T06:58:08;6.63;;;4.80;;
55913;SDS011;58179;48.776;9.124;2023-05-07T07:00:34;6.93;;;5.28;;
55913;SDS011;58179;48.776;9.124;2023-05-07T07:03:00;8.38;;;5.60;;
55913;SDS011;58179;48.776;9.124;2023-05-07T07:05:27;7.15;;;5.15;;
55913;SDS011;58179;48.776;9.124;2023-05-07T07:07:53;7.20;;;5.47;;
55913;SDS011;58179;48.776;9.124;2023-05-07T07:10:19;6.93;;;5.45;;
55913;SDS011;58179;48.776;9.124;2023-05-07T07:12:45;5.60;;;4.65;;
55913;SDS011;58179;48.776;9.124;2023-05-07T07:15:11;6.07;;;4.80;;
55913;SDS011;58179;48.776;9.124;2023-05-07T07:17:38;6.60;;;5.07;;
55913;SDS011;58179;48.776;9.124;2023-05-07T07:20:04;6.90;;;4.80;;
55913;SDS011;58179;48.776;9.124;2023-05-07T07:22:33;6.40;;;5.00;;
55913;SDS011;58179;48.776;9.124;2023-05-07T07:24:59;9.48;;;4.60;;
55913;SDS011;58179;48.776;9.124;2023-05-07T07:27:25;6.82;;;4.90;;
55913;SDS011;58179;48.776;9.124;2023-05-07T07:29:51;6.33;;;4.43;;
55913;SDS011;58179;48.776;9.124;2023-05-07T07:32:16;5.50;;;3.97;;
55913;SDS011;58179;48.776;9.124;2023-05-07T07:34:42;5.50;;;4.00;;
55913;SDS011;58179;48.776;9.124;2023-05-07T07:37:08;6.30;;;4.13;;
55913;SDS011;58179;48.776;9.124;2023-05-07T07:39:35;5.70;;;4.15;;
55913;SDS011;58179;48.776;9.124;2023-05-07T07:42:04;7.18;;;4.50;;
55913;SDS011;58179;48.776;9.124;2023-05-07T07:44:30;5.22;;;4.07;;
55913;SDS011;58179;48.776;9.124;2023-05-07T07:46:56;5.50;;;3.60;;
55913;SDS011;58179;48.776;9.124;2023-05-07T07:49:22;4.15;;;3.63;;
55913;SDS011;58179;48.776;9.124;2023-05-07T07:51:48;7.10;;;3.97;;
55913;SDS011;58179;48.776;9.124;2023-05-07T07:54:14;4.60;;;3.57;;
55913;SDS011;58179;48.776;9.124;2023-05-07T07:56:41;5.23;;;3.40;;
55913;SDS011;58179;48.776;9.124;2023-05-07T07:59:07;6.10;;;3.70;;
55913;SDS011;58179;48.776;9.124;2023-05-07T08:01:33;3.72;;;3.08;;
55913;SDS011;58179;48.776;9.124;2023-05-07T08:03:59;3.88;;;3.10;;
55913;SDS011;58179;48.776;9.124;2023-05-07T08:06:25;4.93;;;2.70;;
55913;SDS011;58179;48.776;9.124;2023-05-07T08:08:51;4.13;;;3.00;;
55913;SDS011;58179;48.776;9.124;2023-05-07T08:11:17;6.28;;;3.30;;
55913;SDS011;58179;48.776;9.124;2023-05-07T08:13:45;3.20;;;2.60;;
55913;SDS011;58179;48.776;9.124;2023-05-07T08:16:11;5.03;;;3.50;;
55913;SDS011;58179;48.776;9.124;2023-05-07T08:18:42;5.05;;;3.13;;
55913;SDS011;58179;48.776;9.124;2023-05-07T08:21:08;4.77;;;3.47;;
55913;SDS011;58179;48.776;9.124;2023-05-07T08:23:34;5.43;;;3.23;;
55913;SDS011;58179;48.776;9.124;2023-05-07T08:26:00;3.20;;;2.73;;
55913;SDS011;58179;48.776;9.124;2023-05-07T08:28:26;3.97;;;2.80;;
55913;SDS011;58179;48.776;9.124;2023-05-07T08:30:53;5.07;;;3.17;;
55913;SDS011;58179;48.776;9.124;2023-05-07T08:33:19;4.60;;;3.33;;
55913;SDS011;58179;48.776;9.124;2023-05-07T08:35:45;3.58;;;2.60;;
55913;SDS011;58179;48.776;9.124;2023-05-07T08:38:11;3.90;;;2.80;;
55913;SDS011;58179;48.776;9.124;2023-05-07T08:40:37;5.95;;;3.03;;
55913;SDS011;58179;48.776;9.124;2023-05-07T08:43:06;4.63;;;2.65;;
55913;SDS011;58179;48.776;9.124;2023-05-07T08:45:32;4.90;;;3.20;;
55913;SDS011;58179;48.776;9.124;2023-05-07T08:48:03;6.43;;;2.80;;
55913;SDS011;58179;48.776;9.124;2023-05-07T08:50:35;5.68;;;3.05;;
55913;SDS011;58179;48.776;9.124;2023-05-07T08:53:02;5.50;;;3.45;;
55913;SDS011;58179;48.776;9.124;2023-05-07T08:55:28;4.47;;;3.28;;
55913;SDS011;58179;48.776;9.124;2023-05-07T08:57:54;4.50;;;2.97;;
55913;SDS011;58179;48.776;9.124;2023-05-07T09:00:20;4.70;;;2.30;;
55913;SDS011;58179;48.776;9.124;2023-05-07T09:02:47;3.67;;;2.22;;
55913;SDS011;58179;48.776;9.124;2023-05-07T09:05:14;3.97;;;2.75;;
55913;SDS011;58179;48.776;9.124;2023-05-07T09:07:40;4.10;;;2.40;;
55913;SDS011;58179;48.776;9.124;2023-05-07T09:10:07;2.80;;;2.37;;
55913;SDS011;58179;48.776;9.124;2023-05-07T09:12:33;3.60;;;2.40;;
55913;SDS011;58179;48.776;9.124;2023-05-07T09:15:03;3.13;;;2.10;;
55913;SDS011;58179;48.776;9.124;2023-05-07T09:17:30;3.85;;;2.40;;
55913;SDS011;58179;48.776;9.124;2023-05-07T09:20:01;3.20;;;2.10;;
55913;SDS011;58179;48.776;9.124;2023-05-07T09:22:30;6.05;;;2.92;;
55913;SDS011;58179;48.776;9.124;2023-05-07T09:24:57;74.03;;;5.70;;
55913;SDS011;58179;48.776;9.124;2023-05-07T09:27:23;5.40;;;2.60;;
55913;SDS011;58179;48.776;9.124;2023-05-07T09:29:50;6.80;;;2.20;;
55913;SDS011;58179;48.776;9.124;2023-05-07T09:32:15;7.45;;;1.90;;
55913;SDS011;58179;48.776;9.124;2023-05-07T09:34:41;4.18;;;2.03;;
55913;SDS011;58179;48.776;9.124;2023-05-07T09:37:07;3.55;;;2.10;;
55913;SDS011;58179;48.776;9.124;2023-05-07T09:39:41;3.03;;;2.08;;
55913;SDS011;58179;48.776;9.124;2023-05-07T09:42:08;5.07;;;2.13;;
55913;SDS011;58179;48.776;9.124;2023-05-07T09:44:35;4.40;;;1.90;;
55913;SDS011;58179;48.776;9.124;2023-05-07T09:47:01;3.83;;;1.90;;
55913;SDS011;58179;48.776;9.124;2023-05-07T09:49:33;3.60;;;1.73;;
55913;SDS011;58179;48.776;9.124;2023-05-07T09:52:02;4.30;;;2.15;;
55913;SDS011;58179;48.776;9.124;2023-05-07T09:54:31;3.95;;;1.80;;
55913;SDS011;58179;48.776;9.124;2023-05-07T09:57:00;4.55;;;1.92;;
55913;SDS011;58179;48.776;9.124;2023-05-07T09:59:28;5.82;;;2.78;;
55913;SDS011;58179;48.776;9.124;2023-05-07T10:01:57;3.42;;;2.10;;
55913;SDS011;58179;48.776;9.124;2023-05-07T10:04:26;3.92;;;2.00;;
55913;SDS011;58179;48.776;9.124;2023-05-07T10:06:52;5.30;;;2.30;;
55913;SDS011;58179;48.776;9.124;2023-05-07T10:09:20;2.88;;;1.95;;
55913;SDS011;58179;48.776;9.124;2023-05-07T10:11:48;3.88;;;2.05;;
55913;SDS011;58179;48.776;9.124;2023-05-07T10:14:16;5.60;;;2.00;;
55913;SDS011;58179;48.776;9.124;2023-05-07T10:16:44;3.10;;;2.05;;
55913;SDS011;58179;48.776;9.124;2023-05-07T10:19:11;3.03;;;2.00;;
55913;SDS011;58179;48.776;9.124;2023-05-07T10:21:37;4.05;;;1.77;;
55913;SDS011;58179;48.776;9.124;2023-05-07T10:24:10;3.05;;;1.80;;
55913;SDS011;58179;48.776;9.124;2023-05-07T10:26:51;4.95;;;2.20;;
55913;SDS011;58179;48.776;9.124;2023-05-07T10:29:24;6.40;;;1.70;;
55913;SDS011;58179;48.776;9.124;2023-05-07T10:32:08;5.85;;;1.67;;
55913;SDS011;58179;48.776;9.124;2023-05-07T10:34:55;4.78;;;1.80;;
55913;SDS011;58179;48.776;9.124;2023-05-07T10:37:24;4.23;;;1.50;;
55913;SDS011;58179;48.776;9.124;2023-05-07T10:39:50;4.28;;;1.77;;
55913;SDS011;58179;48.776;9.124;2023-05-07T10:42:17;5.50;;;1.70;;
55913;SDS011;58179;48.776;9.124;2023-05-07T10:44:45;6.40;;;1.90;;
55913;SDS011;58179;48.776;9.124;2023-05-07T10:47:11;4.07;;;1.50;;
55913;SDS011;58179;48.776;9.124;2023-05-07T10:52:45;5.72;;;1.80;;
55913;SDS011;58179;48.776;9.124;2023-05-07T10:55:50;1.75;;;1.48;;
55913;SDS011;58179;48.776;9.124;2023-05-07T10:58:50;3.25;;;1.40;;
55913;SDS011;58179;48.776;9.124;2023-05-07T11:01:17;5.07;;;2.13;;
55913;SDS011;58179;48.776;9.124;2023-05-07T11:04:19;4.78;;;1.63;;
55913;SDS011;58179;48.776;9.124;2023-05-07T11:09:58;2.80;;;1.47;;
55913;SDS011;58179;48.776;9.124;2023-05-07T11:12:51;5.60;;;2.17;;
55913;SDS011;58179;48.776;9.124;2023-05-07T11:15:42;4.70;;;2.00;;
55913;SDS011;58179;48.776;9.124;2023-05-07T11:18:11;5.50;;;1.80;;
55913;SDS011;58179;48.776;9.124;2023-05-07T11:20:46;3.67;;;1.70;;
55913;SDS011;58179;48.776;9.124;2023-05-07T11:26:23;2.42;;;1.63;;
55913;SDS011;58179;48.776;9.124;2023-05-07T11:28:51;5.72;;;2.00;;
55913;SDS011;58179;48.776;9.124;2023-05-07T11:31:20;3.10;;;1.85;;
55913;SDS011;58179;48.776;9.124;2023-05-07T11:33:51;9.65;;;2.67;;
55913;SDS011;58179;48.776;9.124;2023-05-07T11:36:18;3.13;;;1.70;;
55913;SDS011;58179;48.776;9.124;2023-05-07T11:38:48;3.40;;;1.93;;
55913;SDS011;58179;48.776;9.124;2023-05-07T11:41:15;5.53;;;2.00;;
55913;SDS011;58179;48.776;9.124;2023-05-07T11:46:25;15.15;;;3.15;;
55913;SDS011;58179;48.776;9.124;2023-05-07T11:48:53;10.75;;;3.33;;
55913;SDS011;58179;48.776;9.124;2023-05-07T11:51:20;21.20;;;8.40;;
55913;SDS011;58179;48.776;9.124;2023-05-07T11:53:48;12.48;;;4.60;;
55913;SDS011;58179;48.776;9.124;2023-05-07T11:56:15;8.27;;;4.40;;
55913;SDS011;58179;48.776;9.124;2023-05-07T11:58:42;8.07;;;3.85;;
55913;SDS011;58179;48.776;9.124;2023-05-07T12:01:10;8.20;;;4.32;;
55913;SDS011;58179;48.776;9.124;2023-05-07T12:03:39;15.40;;;5.93;;
55913;SDS011;58179;48.776;9.124;2023-05-07T12:06:14;15.80;;;6.40;;
55913;SDS011;58179;48.776;9.124;2023-05-07T12:08:42;22.17;;;9.95;;
55913;SDS011;58179;48.776;9.124;2023-05-07T12:11:10;37.42;;;14.10;;
55913;SDS011;58179;48.776;9.124;2023-05-07T12:13:39;37.95;;;16.67;;
55913;SDS011;58179;48.776;9.124;2023-05-07T12:16:06;36.45;;;15.05;;
55913;SDS011;58179;48.776;9.124;2023-05-07T12:18:36;18.30;;;10.45;;
55913;SDS011;58179;48.776;9.124;2023-05-07T12:21:04;25.60;;;13.90;;
55913;SDS011;58179;48.776;9.124;2023-05-07T12:23:33;30.58;;;13.98;;
55913;SDS011;58179;48.776;9.124;2023-05-07T12:26:00;25.77;;;13.77;;
55913;SDS011;58179;48.776;9.124;2023-05-07T12:28:27;26.85;;;13.75;;
55913;SDS011;58179;48.776;9.124;2023-05-07T12:30:53;45.83;;;18.17;;
55913;SDS011;58179;48.776;9.124;2023-05-07T12:33:24;32.05;;;15.60;;
55913;SDS011;58179;48.776;9.124;2023-05-07T12:35:53;26.80;;;12.70;;
55913;SDS011;58179;48.776;9.124;2023-05-07T12:38:20;30.27;;;14.82;;
55913;SDS011;58179;48.776;9.124;2023-05-07T12:40:48;105.30;;;25.27;;
55913;SDS011;58179;48.776;9.124;2023-05-07T12:43:16;35.38;;;18.15;;
55913;SDS011;58179;48.776;9.124;2023-05-07T12:45:43;38.33;;;19.55;;
55913;SDS011;58179;48.776;9.124;2023-05-07T12:48:11;55.53;;;24.42;;
55913;SDS011;58179;48.776;9.124;2023-05-07T12:50:37;54.03;;;22.67;;
55913;SDS011;58179;48.776;9.124;2023-05-07T12:53:04;33.88;;;17.40;;
55913;SDS011;58179;48.776;9.124;2023-05-07T12:55:39;44.08;;;17.55;;
55913;SDS011;58179;48.776;9.124;2023-05-07T12:58:08;32.92;;;15.80;;
55913;SDS011;58179;48.776;9.124;2023-05-07T13:00:41;25.23;;;14.23;;
55913;SDS011;58179;48.776;9.124;2023-05-07T13:03:11;49.10;;;20.70;;
55913;SDS011;58179;48.776;9.124;2023-05-07T13:05:37;44.75;;;19.58;;
55913;SDS011;58179;48.776;9.124;2023-05-07T13:08:03;34.83;;;17.23;;
55913;SDS011;58179;48.776;9.124;2023-05-07T13:10:30;55.60;;;18.10;;
55913;SDS011;58179;48.776;9.124;2023-05-07T13:12:57;30.70;;;15.38;;
55913;SDS011;58179;48.776;9.124;2023-05-07T13:15:24;25.13;;;11.63;;
55913;SDS011;58179;48.776;9.124;2023-05-07T13:17:52;30.35;;;13.23;;
55913;SDS011;58179;48.776;9.124;2023-05-07T13:20:17;26.52;;;12.57;;
55913;SDS011;58179;48.776;9.124;2023-05-07T13:22:44;26.00;;;11.17;;
55913;SDS011;58179;48.776;9.124;2023-05-07T13:25:10;24.67;;;11.38;;
55913;SDS011;58179;48.776;9.124;2023-05-07T13:27:36;23.40;;;11.55;;
55913;SDS011;58179;48.776;9.124;2023-05-07T13:30:02;25.08;;;12.90;;
55913;SDS011;58179;48.776;9.124;2023-05-07T13:32:31;27.13;;;12.32;;
55913;SDS011;58179;48.776;9.124;2023-05-07T13:34:57;22.17;;;11.63;;
55913;SDS011;58179;48.776;9.124;2023-05-07T13:37:23;25.08;;;11.52;;
55913;SDS011;58179;48.776;9.124;2023-05-07T13:39:49;22.40;;;11.27;;
55913;SDS011;58179;48.776;9.124;2023-05-07T13:42:15;24.05;;;11.52;;
55913;SDS011;58179;48.776;9.124;2023-05-07T13:44:42;27.40;;;11.90;;
55913;SDS011;58179;48.776;9.124;2023-05-07T13:47:08;36.97;;;13.52;;
55913;SDS011;58179;48.776;9.124;2023-05-07T13:49:36;28.07;;;13.60;;
55913;SDS011;58179;48.776;9.124;2023-05-07T13:52:01;31.13;;;12.82;;
55913;SDS011;58179;48.776;9.124;2023-05-07T13:54:28;23.83;;;11.77;;
55913;SDS011;58179;48.776;9.124;2023-05-07T13:56:54;21.88;;;11.85;;
55913;SDS011;58179;48.776;9.124;2023-05-07T13:59:20;27.70;;;13.32;;
55913;SDS011;58179;48.776;9.124;2023-05-07T14:01:46;22.58;;;10.30;;
55913;SDS011;58179;48.776;9.124;2023-05-07T14:04:12;24.90;;;11.60;;
55913;SDS011;58179;48.776;9.124;2023-05-07T14:06:39;24.43;;;10.63;;
55913;SDS011;58179;48.776;9.124;2023-05-07T14:09:05;24.30;;;11.95;;
55913;SDS011;58179;48.776;9.124;2023-05-07T14:11:31;24.63;;;12.50;;
55913;SDS011;58179;48.776;9.124;2023-05-07T14:13:56;31.73;;;13.95;;
55913;SDS011;58179;48.776;9.124;2023-05-07T14:16:23;33.42;;;15.20;;
55913;SDS011;58179;48.776;9.124;2023-05-07T14:18:49;29.55;;;14.57;;
55913;SDS011;58179;48.776;9.124;2023-05-07T14:21:15;34.22;;;15.75;;
55913;SDS011;58179;48.776;9.124;2023-05-07T14:23:42;40.95;;;17.92;;
55913;SDS011;58179;48.776;9.124;2023-05-07T14:26:08;41.42;;;19.02;;
55913;SDS011;58179;48.776;9.124;2023-05-07T14:28:34;37.55;;;19.02;;
55913;SDS011;58179;48.776;9.124;2023-05-07T14:31:00;39.25;;;18.35;;
55913;SDS011;58179;48.776;9.124;2023-05-07T14:33:26;36.60;;;19.15;;
55913;SDS011;58179;48.776;9.124;2023-05-07T14:36:01;41.23;;;18.87;;
55913;SDS011;58179;48.776;9.124;2023-05-07T14:38:28;37.20;;;19.20;;
55913;SDS011;58179;48.776;9.124;2023-05-07T14:40:56;36.83;;;18.42;;
55913;SDS011;58179;48.776;9.124;2023-05-07T14:43:22;40.47;;;19.55;;
55913;SDS011;58179;48.776;9.124;2023-05-07T14:45:48;29.97;;;16.27;;
55913;SDS011;58179;48.776;9.124;2023-05-07T14:48:14;37.92;;;17.60;;
55913;SDS011;58179;48.776;9.124;2023-05-07T14:50:43;28.33;;;16.08;;
55913;SDS011;58179;48.776;9.124;2023-05-07T14:53:14;30.30;;;16.80;;
55913;SDS011;58179;48.776;9.124;2023-05-07T14:55:40;39.17;;;19.27;;